sensor_id;sensor_type;location;lat;lon;timestamp;P1;durP1;ratioP1;P2;durP2;ratioP2
35376;SDS011;21480;51.642;4.834;2022-08-19T00:00:44;130.97;;;120.67;;
35376;SDS011;21480;51.642;4.834;2022-08-19T00:03:10;131.03;;;120.83;;
35376;SDS011;21480;51.642;4.834;2022-08-19T00:05:35;131.07;;;120.63;;
35376;SDS011;21480;51.642;4.834;2022-08-19T00:08:01;129.77;;;119.67;;
35376;SDS011;21480;51.642;4.834;2022-08-19T00:10:27;129.67;;;118.93;;
35376;SDS011;21480;51.642;4.834;2022-08-19T00:12:53;129.60;;;119.33;;
35376;SDS011;21480;51.642;4.834;2022-08-19T00:15:19;128.07;;;118.17;;
35376;SDS011;21480;51.642;4.834;2022-08-19T00:17:46;128.20;;;118.10;;
35376;SDS011;21480;51.642;4.834;2022-08-19T00:20:14;127.20;;;117.33;;
35376;SDS011;21480;51.642;4.834;2022-08-19T00:22:43;131.33;;;120.63;;
35376;SDS011;21480;51.642;4.834;2022-08-19T00:25:09;132.03;;;120.83;;
35376;SDS011;21480;51.642;4.834;2022-08-19T00:27:35;133.47;;;122.07;;
35376;SDS011;21480;51.642;4.834;2022-08-19T00:30:00;131.83;;;120.73;;
35376;SDS011;21480;51.642;4.834;2022-08-19T00:32:28;132.57;;;121.60;;
35376;SDS011;21480;51.642;4.834;2022-08-19T00:34:54;133.63;;;122.73;;
35376;SDS011;21480;51.642;4.834;2022-08-19T00:37:23;133.27;;;121.97;;
35376;SDS011;21480;51.642;4.834;2022-08-19T00:39:50;132.53;;;121.67;;
35376;SDS011;21480;51.642;4.834;2022-08-19T00:42:17;134.00;;;122.63;;
35376;SDS011;21480;51.642;4.834;2022-08-19T00:44:43;133.50;;;122.63;;
35376;SDS011;21480;51.642;4.834;2022-08-19T00:47:09;133.03;;;121.53;;
35376;SDS011;21480;51.642;4.834;2022-08-19T00:49:57;135.33;;;124.07;;
35376;SDS011;21480;51.642;4.834;2022-08-19T00:52:24;133.77;;;122.47;;
35376;SDS011;21480;51.642;4.834;2022-08-19T00:54:56;132.73;;;121.33;;
35376;SDS011;21480;51.642;4.834;2022-08-19T00:57:26;130.57;;;120.13;;
35376;SDS011;21480;51.642;4.834;2022-08-19T00:59:58;129.03;;;118.93;;
35376;SDS011;21480;51.642;4.834;2022-08-19T01:02:25;127.97;;;117.93;;
35376;SDS011;21480;51.642;4.834;2022-08-19T01:04:52;131.67;;;120.43;;
35376;SDS011;21480;51.642;4.834;2022-08-19T01:07:18;131.10;;;120.43;;
35376;SDS011;21480;51.642;4.834;2022-08-19T01:09:44;133.03;;;122.10;;
35376;SDS011;21480;51.642;4.834;2022-08-19T01:12:10;134.27;;;122.43;;
35376;SDS011;21480;51.642;4.834;2022-08-19T01:14:36;137.23;;;125.77;;
35376;SDS011;21480;51.642;4.834;2022-08-19T01:17:04;134.57;;;122.97;;
35376;SDS011;21480;51.642;4.834;2022-08-19T01:19:33;132.57;;;121.10;;
35376;SDS011;21480;51.642;4.834;2022-08-19T01:24:51;134.37;;;122.57;;
35376;SDS011;21480;51.642;4.834;2022-08-19T01:27:17;131.73;;;120.63;;
35376;SDS011;21480;51.642;4.834;2022-08-19T01:29:43;134.77;;;122.50;;
35376;SDS011;21480;51.642;4.834;2022-08-19T01:32:11;133.60;;;121.73;;
35376;SDS011;21480;51.642;4.834;2022-08-19T01:34:38;132.37;;;120.73;;
35376;SDS011;21480;51.642;4.834;2022-08-19T01:37:08;135.83;;;123.63;;
35376;SDS011;21480;51.642;4.834;2022-08-19T01:39:36;142.20;;;127.70;;
35376;SDS011;21480;51.642;4.834;2022-08-19T01:42:04;146.23;;;130.83;;
35376;SDS011;21480;51.642;4.834;2022-08-19T01:44:32;143.33;;;129.07;;
35376;SDS011;21480;51.642;4.834;2022-08-19T01:46:58;139.60;;;126.87;;
35376;SDS011;21480;51.642;4.834;2022-08-19T01:49:24;136.20;;;123.90;;
35376;SDS011;21480;51.642;4.834;2022-08-19T01:51:52;135.57;;;123.73;;
35376;SDS011;21480;51.642;4.834;2022-08-19T01:54:19;133.17;;;121.93;;
35376;SDS011;21480;51.642;4.834;2022-08-19T01:56:46;131.87;;;120.93;;
35376;SDS011;21480;51.642;4.834;2022-08-19T01:59:14;135.03;;;122.90;;
35376;SDS011;21480;51.642;4.834;2022-08-19T02:01:43;133.80;;;122.17;;
35376;SDS011;21480;51.642;4.834;2022-08-19T02:04:09;133.10;;;121.43;;
35376;SDS011;21480;51.642;4.834;2022-08-19T02:06:35;133.73;;;122.20;;
35376;SDS011;21480;51.642;4.834;2022-08-19T02:09:05;133.80;;;122.37;;
35376;SDS011;21480;51.642;4.834;2022-08-19T02:11:33;135.57;;;123.67;;
35376;SDS011;21480;51.642;4.834;2022-08-19T02:14:02;136.50;;;124.10;;
35376;SDS011;21480;51.642;4.834;2022-08-19T02:16:30;133.30;;;121.70;;
35376;SDS011;21480;51.642;4.834;2022-08-19T02:18:57;132.83;;;121.40;;
35376;SDS011;21480;51.642;4.834;2022-08-19T02:21:25;133.17;;;121.73;;
35376;SDS011;21480;51.642;4.834;2022-08-19T02:23:51;135.73;;;123.50;;
35376;SDS011;21480;51.642;4.834;2022-08-19T02:26:17;135.90;;;123.53;;
35376;SDS011;21480;51.642;4.834;2022-08-19T02:28:44;133.40;;;121.53;;
35376;SDS011;21480;51.642;4.834;2022-08-19T02:31:10;138.90;;;125.80;;
35376;SDS011;21480;51.642;4.834;2022-08-19T02:33:38;134.17;;;122.50;;
35376;SDS011;21480;51.642;4.834;2022-08-19T02:36:04;135.10;;;122.67;;
35376;SDS011;21480;51.642;4.834;2022-08-19T02:38:32;139.27;;;126.00;;
35376;SDS011;21480;51.642;4.834;2022-08-19T02:41:01;144.10;;;129.87;;
35376;SDS011;21480;51.642;4.834;2022-08-19T02:43:33;142.13;;;127.47;;
35376;SDS011;21480;51.642;4.834;2022-08-19T02:46:13;137.40;;;124.47;;
35376;SDS011;21480;51.642;4.834;2022-08-19T02:48:52;141.10;;;126.90;;
35376;SDS011;21480;51.642;4.834;2022-08-19T02:51:20;143.93;;;129.90;;
35376;SDS011;21480;51.642;4.834;2022-08-19T02:53:48;144.30;;;130.47;;
35376;SDS011;21480;51.642;4.834;2022-08-19T02:56:14;145.53;;;130.40;;
35376;SDS011;21480;51.642;4.834;2022-08-19T02:58:41;146.60;;;132.00;;
35376;SDS011;21480;51.642;4.834;2022-08-19T03:01:08;147.03;;;131.37;;
35376;SDS011;21480;51.642;4.834;2022-08-19T03:03:35;148.90;;;133.33;;
35376;SDS011;21480;51.642;4.834;2022-08-19T03:06:09;160.27;;;135.80;;
35376;SDS011;21480;51.642;4.834;2022-08-19T03:08:38;157.47;;;134.80;;
35376;SDS011;21480;51.642;4.834;2022-08-19T03:11:06;148.07;;;132.00;;
35376;SDS011;21480;51.642;4.834;2022-08-19T03:13:37;144.30;;;129.10;;
35376;SDS011;21480;51.642;4.834;2022-08-19T03:16:04;143.83;;;129.10;;
35376;SDS011;21480;51.642;4.834;2022-08-19T03:18:30;147.10;;;131.40;;
35376;SDS011;21480;51.642;4.834;2022-08-19T03:20:56;145.80;;;130.03;;
35376;SDS011;21480;51.642;4.834;2022-08-19T03:23:22;147.00;;;131.60;;
35376;SDS011;21480;51.642;4.834;2022-08-19T03:25:49;148.43;;;132.43;;
35376;SDS011;21480;51.642;4.834;2022-08-19T03:28:16;145.83;;;130.30;;
35376;SDS011;21480;51.642;4.834;2022-08-19T03:30:42;152.87;;;133.53;;
35376;SDS011;21480;51.642;4.834;2022-08-19T03:33:21;170.00;;;136.53;;
35376;SDS011;21480;51.642;4.834;2022-08-19T03:35:47;149.93;;;131.77;;
35376;SDS011;21480;51.642;4.834;2022-08-19T03:38:24;159.67;;;134.07;;
35376;SDS011;21480;51.642;4.834;2022-08-19T03:40:49;159.33;;;136.83;;
35376;SDS011;21480;51.642;4.834;2022-08-19T03:43:15;176.13;;;139.07;;
35376;SDS011;21480;51.642;4.834;2022-08-19T03:45:43;195.10;;;142.37;;
35376;SDS011;21480;51.642;4.834;2022-08-19T03:48:08;171.87;;;136.40;;
35376;SDS011;21480;51.642;4.834;2022-08-19T03:50:38;168.17;;;137.57;;
35376;SDS011;21480;51.642;4.834;2022-08-19T03:53:04;207.00;;;142.57;;
35376;SDS011;21480;51.642;4.834;2022-08-19T03:55:31;181.10;;;137.60;;
35376;SDS011;21480;51.642;4.834;2022-08-19T03:57:57;182.37;;;139.17;;
35376;SDS011;21480;51.642;4.834;2022-08-19T04:00:23;198.37;;;141.93;;
35376;SDS011;21480;51.642;4.834;2022-08-19T04:02:48;214.17;;;146.93;;
35376;SDS011;21480;51.642;4.834;2022-08-19T04:05:14;259.80;;;154.27;;
35376;SDS011;21480;51.642;4.834;2022-08-19T04:07:40;264.90;;;151.33;;
35376;SDS011;21480;51.642;4.834;2022-08-19T04:10:05;254.43;;;153.33;;
35376;SDS011;21480;51.642;4.834;2022-08-19T04:12:31;238.70;;;148.53;;
35376;SDS011;21480;51.642;4.834;2022-08-19T04:14:57;256.23;;;154.73;;
35376;SDS011;21480;51.642;4.834;2022-08-19T04:17:23;241.67;;;149.20;;
35376;SDS011;21480;51.642;4.834;2022-08-19T04:19:49;236.77;;;149.97;;
35376;SDS011;21480;51.642;4.834;2022-08-19T04:22:14;203.50;;;142.17;;
35376;SDS011;21480;51.642;4.834;2022-08-19T04:24:40;231.70;;;148.53;;
35376;SDS011;21480;51.642;4.834;2022-08-19T04:27:06;247.20;;;152.77;;
35376;SDS011;21480;51.642;4.834;2022-08-19T04:29:32;251.57;;;148.93;;
35376;SDS011;21480;51.642;4.834;2022-08-19T04:31:58;236.17;;;149.83;;
35376;SDS011;21480;51.642;4.834;2022-08-19T04:34:26;250.13;;;149.07;;
35376;SDS011;21480;51.642;4.834;2022-08-19T04:36:54;256.37;;;155.23;;
35376;SDS011;21480;51.642;4.834;2022-08-19T04:39:22;238.00;;;151.53;;
35376;SDS011;21480;51.642;4.834;2022-08-19T04:42:10;231.97;;;151.60;;
35376;SDS011;21480;51.642;4.834;2022-08-19T04:44:55;208.23;;;148.33;;
35376;SDS011;21480;51.642;4.834;2022-08-19T04:47:21;226.53;;;148.47;;
35376;SDS011;21480;51.642;4.834;2022-08-19T04:49:47;209.77;;;146.07;;
35376;SDS011;21480;51.642;4.834;2022-08-19T04:52:13;216.83;;;148.90;;
35376;SDS011;21480;51.642;4.834;2022-08-19T04:54:39;208.23;;;147.47;;
35376;SDS011;21480;51.642;4.834;2022-08-19T04:57:08;202.87;;;149.57;;
35376;SDS011;21480;51.642;4.834;2022-08-19T04:59:35;207.07;;;149.47;;
35376;SDS011;21480;51.642;4.834;2022-08-19T05:02:01;195.47;;;147.77;;
35376;SDS011;21480;51.642;4.834;2022-08-19T05:04:28;172.83;;;143.10;;
35376;SDS011;21480;51.642;4.834;2022-08-19T05:06:55;175.57;;;143.80;;
35376;SDS011;21480;51.642;4.834;2022-08-19T05:09:21;165.40;;;141.07;;
35376;SDS011;21480;51.642;4.834;2022-08-19T05:11:47;167.63;;;142.17;;
35376;SDS011;21480;51.642;4.834;2022-08-19T05:14:14;176.43;;;144.27;;
35376;SDS011;21480;51.642;4.834;2022-08-19T05:16:40;166.13;;;143.37;;
35376;SDS011;21480;51.642;4.834;2022-08-19T05:19:06;159.87;;;142.23;;
35376;SDS011;21480;51.642;4.834;2022-08-19T05:21:50;156.57;;;139.33;;
35376;SDS011;21480;51.642;4.834;2022-08-19T05:24:34;157.47;;;140.53;;
35376;SDS011;21480;51.642;4.834;2022-08-19T05:27:01;156.83;;;140.00;;
35376;SDS011;21480;51.642;4.834;2022-08-19T05:29:28;156.47;;;139.40;;
35376;SDS011;21480;51.642;4.834;2022-08-19T05:31:57;152.57;;;136.37;;
35376;SDS011;21480;51.642;4.834;2022-08-19T05:34:24;152.93;;;136.67;;
35376;SDS011;21480;51.642;4.834;2022-08-19T05:36:53;152.13;;;136.73;;
35376;SDS011;21480;51.642;4.834;2022-08-19T05:39:22;151.03;;;135.83;;
35376;SDS011;21480;51.642;4.834;2022-08-19T05:41:57;150.63;;;134.97;;
35376;SDS011;21480;51.642;4.834;2022-08-19T05:44:26;150.13;;;134.93;;
35376;SDS011;21480;51.642;4.834;2022-08-19T05:47:01;150.60;;;135.50;;
35376;SDS011;21480;51.642;4.834;2022-08-19T05:49:29;147.27;;;132.50;;
35376;SDS011;21480;51.642;4.834;2022-08-19T05:51:56;148.57;;;134.20;;
35376;SDS011;21480;51.642;4.834;2022-08-19T05:54:24;147.97;;;133.83;;
35376;SDS011;21480;51.642;4.834;2022-08-19T05:56:50;148.77;;;133.67;;
35376;SDS011;21480;51.642;4.834;2022-08-19T05:59:17;147.53;;;132.77;;
35376;SDS011;21480;51.642;4.834;2022-08-19T06:01:46;147.37;;;132.90;;
35376;SDS011;21480;51.642;4.834;2022-08-19T06:04:15;146.87;;;132.60;;
35376;SDS011;21480;51.642;4.834;2022-08-19T06:06:43;144.87;;;131.87;;
35376;SDS011;21480;51.642;4.834;2022-08-19T06:09:09;144.47;;;130.77;;
35376;SDS011;21480;51.642;4.834;2022-08-19T06:11:42;140.33;;;127.47;;
35376;SDS011;21480;51.642;4.834;2022-08-19T06:14:14;142.47;;;129.40;;
35376;SDS011;21480;51.642;4.834;2022-08-19T06:16:42;141.03;;;128.70;;
35376;SDS011;21480;51.642;4.834;2022-08-19T06:19:09;140.80;;;127.97;;
35376;SDS011;21480;51.642;4.834;2022-08-19T06:21:38;139.77;;;127.10;;
35376;SDS011;21480;51.642;4.834;2022-08-19T06:24:07;142.80;;;128.73;;
35376;SDS011;21480;51.642;4.834;2022-08-19T06:26:35;140.97;;;128.13;;
35376;SDS011;21480;51.642;4.834;2022-08-19T06:29:04;141.10;;;127.80;;
35376;SDS011;21480;51.642;4.834;2022-08-19T06:31:31;140.00;;;127.07;;
35376;SDS011;21480;51.642;4.834;2022-08-19T06:33:59;138.90;;;126.83;;
35376;SDS011;21480;51.642;4.834;2022-08-19T06:36:29;141.47;;;128.50;;
35376;SDS011;21480;51.642;4.834;2022-08-19T06:38:59;139.43;;;127.37;;
35376;SDS011;21480;51.642;4.834;2022-08-19T06:41:28;139.73;;;126.93;;
35376;SDS011;21480;51.642;4.834;2022-08-19T06:43:55;139.80;;;127.17;;
35376;SDS011;21480;51.642;4.834;2022-08-19T06:46:21;141.53;;;128.40;;
35376;SDS011;21480;51.642;4.834;2022-08-19T06:48:47;139.77;;;126.73;;
35376;SDS011;21480;51.642;4.834;2022-08-19T06:51:14;140.53;;;127.80;;
35376;SDS011;21480;51.642;4.834;2022-08-19T06:53:44;139.60;;;126.60;;
35376;SDS011;21480;51.642;4.834;2022-08-19T06:56:15;140.23;;;127.30;;
35376;SDS011;21480;51.642;4.834;2022-08-19T06:58:43;143.17;;;129.43;;
35376;SDS011;21480;51.642;4.834;2022-08-19T07:01:09;142.50;;;129.70;;
35376;SDS011;21480;51.642;4.834;2022-08-19T07:03:36;140.23;;;127.70;;
35376;SDS011;21480;51.642;4.834;2022-08-19T07:06:04;142.87;;;129.53;;
35376;SDS011;21480;51.642;4.834;2022-08-19T07:08:33;140.00;;;127.43;;
35376;SDS011;21480;51.642;4.834;2022-08-19T07:10:59;139.50;;;126.40;;
35376;SDS011;21480;51.642;4.834;2022-08-19T07:13:25;139.53;;;126.57;;
35376;SDS011;21480;51.642;4.834;2022-08-19T07:15:51;140.93;;;128.00;;
35376;SDS011;21480;51.642;4.834;2022-08-19T07:18:18;139.47;;;126.57;;
35376;SDS011;21480;51.642;4.834;2022-08-19T07:20:45;142.40;;;129.87;;
35376;SDS011;21480;51.642;4.834;2022-08-19T07:23:12;143.60;;;129.80;;
35376;SDS011;21480;51.642;4.834;2022-08-19T07:25:38;141.20;;;128.50;;
35376;SDS011;21480;51.642;4.834;2022-08-19T07:28:05;138.60;;;125.73;;
35376;SDS011;21480;51.642;4.834;2022-08-19T07:30:36;145.43;;;131.87;;
35376;SDS011;21480;51.642;4.834;2022-08-19T07:33:02;142.57;;;128.87;;
35376;SDS011;21480;51.642;4.834;2022-08-19T07:35:28;141.40;;;128.47;;
35376;SDS011;21480;51.642;4.834;2022-08-19T07:37:57;141.00;;;128.73;;
35376;SDS011;21480;51.642;4.834;2022-08-19T07:40:23;139.40;;;127.53;;
35376;SDS011;21480;51.642;4.834;2022-08-19T07:42:49;138.80;;;126.53;;
35376;SDS011;21480;51.642;4.834;2022-08-19T07:45:15;139.73;;;126.57;;
35376;SDS011;21480;51.642;4.834;2022-08-19T07:47:41;140.50;;;127.53;;
35376;SDS011;21480;51.642;4.834;2022-08-19T07:50:08;139.40;;;127.10;;
35376;SDS011;21480;51.642;4.834;2022-08-19T07:52:36;138.73;;;125.87;;
35376;SDS011;21480;51.642;4.834;2022-08-19T07:55:05;139.53;;;127.30;;
35376;SDS011;21480;51.642;4.834;2022-08-19T07:57:32;137.47;;;125.60;;
35376;SDS011;21480;51.642;4.834;2022-08-19T07:59:58;137.70;;;125.40;;
35376;SDS011;21480;51.642;4.834;2022-08-19T08:02:24;137.50;;;125.83;;
35376;SDS011;21480;51.642;4.834;2022-08-19T08:04:50;137.30;;;125.33;;
35376;SDS011;21480;51.642;4.834;2022-08-19T08:07:34;136.70;;;124.80;;
35376;SDS011;21480;51.642;4.834;2022-08-19T08:10:18;135.50;;;124.33;;
35376;SDS011;21480;51.642;4.834;2022-08-19T08:12:44;133.00;;;121.90;;
35376;SDS011;21480;51.642;4.834;2022-08-19T08:15:12;134.37;;;123.13;;
35376;SDS011;21480;51.642;4.834;2022-08-19T08:17:43;134.07;;;123.10;;
35376;SDS011;21480;51.642;4.834;2022-08-19T08:20:11;131.97;;;121.57;;
35376;SDS011;21480;51.642;4.834;2022-08-19T08:22:42;134.63;;;122.57;;
35376;SDS011;21480;51.642;4.834;2022-08-19T08:25:27;131.60;;;120.77;;
35376;SDS011;21480;51.642;4.834;2022-08-19T08:27:54;131.43;;;120.93;;
35376;SDS011;21480;51.642;4.834;2022-08-19T08:30:22;131.77;;;121.17;;
35376;SDS011;21480;51.642;4.834;2022-08-19T08:32:50;129.07;;;118.97;;
35376;SDS011;21480;51.642;4.834;2022-08-19T08:35:17;131.60;;;121.10;;
35376;SDS011;21480;51.642;4.834;2022-08-19T08:37:47;128.93;;;118.83;;
35376;SDS011;21480;51.642;4.834;2022-08-19T08:42:53;127.23;;;117.43;;
35376;SDS011;21480;51.642;4.834;2022-08-19T08:45:23;126.30;;;116.37;;
35376;SDS011;21480;51.642;4.834;2022-08-19T08:47:50;125.87;;;115.90;;
35376;SDS011;21480;51.642;4.834;2022-08-19T08:50:24;125.13;;;115.87;;
35376;SDS011;21480;51.642;4.834;2022-08-19T08:53:00;124.63;;;115.17;;
35376;SDS011;21480;51.642;4.834;2022-08-19T08:55:28;125.43;;;116.10;;
35376;SDS011;21480;51.642;4.834;2022-08-19T08:58:14;125.53;;;115.90;;
35376;SDS011;21480;51.642;4.834;2022-08-19T09:00:48;125.40;;;115.77;;
35376;SDS011;21480;51.642;4.834;2022-08-19T09:11:23;123.97;;;114.60;;
35376;SDS011;21480;51.642;4.834;2022-08-19T09:16:40;123.87;;;114.40;;
35376;SDS011;21480;51.642;4.834;2022-08-19T09:19:06;124.20;;;114.80;;
35376;SDS011;21480;51.642;4.834;2022-08-19T09:21:33;124.90;;;115.53;;
35376;SDS011;21480;51.642;4.834;2022-08-19T09:24:04;123.23;;;114.20;;
35376;SDS011;21480;51.642;4.834;2022-08-19T09:26:31;121.83;;;112.97;;
35376;SDS011;21480;51.642;4.834;2022-08-19T09:28:58;121.70;;;112.50;;
35376;SDS011;21480;51.642;4.834;2022-08-19T09:31:26;123.87;;;114.57;;
35376;SDS011;21480;51.642;4.834;2022-08-19T09:33:54;123.13;;;113.60;;
35376;SDS011;21480;51.642;4.834;2022-08-19T09:36:22;120.73;;;112.07;;
35376;SDS011;21480;51.642;4.834;2022-08-19T09:38:50;121.83;;;113.07;;
35376;SDS011;21480;51.642;4.834;2022-08-19T09:41:18;121.63;;;112.80;;
35376;SDS011;21480;51.642;4.834;2022-08-19T09:43:46;123.30;;;114.30;;
35376;SDS011;21480;51.642;4.834;2022-08-19T09:46:13;123.67;;;113.93;;
35376;SDS011;21480;51.642;4.834;2022-08-19T09:48:41;123.40;;;114.30;;
35376;SDS011;21480;51.642;4.834;2022-08-19T09:51:13;123.23;;;113.77;;
35376;SDS011;21480;51.642;4.834;2022-08-19T09:53:41;122.03;;;113.03;;
35376;SDS011;21480;51.642;4.834;2022-08-19T09:56:11;122.57;;;113.43;;
35376;SDS011;21480;51.642;4.834;2022-08-19T09:58:37;123.03;;;114.03;;
35376;SDS011;21480;51.642;4.834;2022-08-19T10:01:04;123.60;;;114.47;;
35376;SDS011;21480;51.642;4.834;2022-08-19T10:03:31;122.47;;;112.80;;
35376;SDS011;21480;51.642;4.834;2022-08-19T10:05:59;120.37;;;111.83;;
35376;SDS011;21480;51.642;4.834;2022-08-19T10:08:30;122.00;;;113.33;;
35376;SDS011;21480;51.642;4.834;2022-08-19T10:10:57;121.40;;;112.60;;
35376;SDS011;21480;51.642;4.834;2022-08-19T10:13:26;122.53;;;113.47;;
35376;SDS011;21480;51.642;4.834;2022-08-19T10:15:53;119.53;;;111.20;;
35376;SDS011;21480;51.642;4.834;2022-08-19T10:18:21;122.73;;;113.77;;
35376;SDS011;21480;51.642;4.834;2022-08-19T10:20:50;120.93;;;111.53;;
35376;SDS011;21480;51.642;4.834;2022-08-19T10:23:19;122.00;;;113.33;;
35376;SDS011;21480;51.642;4.834;2022-08-19T10:25:45;120.60;;;111.97;;
35376;SDS011;21480;51.642;4.834;2022-08-19T10:28:12;121.63;;;112.70;;
35376;SDS011;21480;51.642;4.834;2022-08-19T10:30:38;122.33;;;113.47;;
35376;SDS011;21480;51.642;4.834;2022-08-19T10:33:05;120.70;;;111.80;;
35376;SDS011;21480;51.642;4.834;2022-08-19T10:35:31;121.53;;;112.47;;
35376;SDS011;21480;51.642;4.834;2022-08-19T10:37:57;123.87;;;114.60;;
35376;SDS011;21480;51.642;4.834;2022-08-19T10:40:27;121.47;;;112.77;;
35376;SDS011;21480;51.642;4.834;2022-08-19T10:42:54;119.67;;;110.57;;
35376;SDS011;21480;51.642;4.834;2022-08-19T10:45:23;122.33;;;113.43;;
35376;SDS011;21480;51.642;4.834;2022-08-19T10:47:52;121.30;;;112.40;;
35376;SDS011;21480;51.642;4.834;2022-08-19T10:50:18;120.23;;;111.90;;
35376;SDS011;21480;51.642;4.834;2022-08-19T10:53:07;121.07;;;112.30;;
35376;SDS011;21480;51.642;4.834;2022-08-19T10:55:36;121.03;;;112.63;;
35376;SDS011;21480;51.642;4.834;2022-08-19T10:58:21;121.17;;;112.70;;
35376;SDS011;21480;51.642;4.834;2022-08-19T11:00:54;119.20;;;110.80;;
35376;SDS011;21480;51.642;4.834;2022-08-19T11:03:21;120.83;;;112.20;;
35376;SDS011;21480;51.642;4.834;2022-08-19T11:06:01;121.77;;;112.93;;
35376;SDS011;21480;51.642;4.834;2022-08-19T11:08:32;123.50;;;114.43;;
35376;SDS011;21480;51.642;4.834;2022-08-19T11:11:00;122.20;;;113.17;;
35376;SDS011;21480;51.642;4.834;2022-08-19T11:13:28;119.60;;;111.60;;
35376;SDS011;21480;51.642;4.834;2022-08-19T11:16:12;120.87;;;111.93;;
35376;SDS011;21480;51.642;4.834;2022-08-19T11:18:44;123.73;;;114.63;;
35376;SDS011;21480;51.642;4.834;2022-08-19T11:21:16;123.90;;;114.90;;
35376;SDS011;21480;51.642;4.834;2022-08-19T11:23:58;124.87;;;115.90;;
35376;SDS011;21480;51.642;4.834;2022-08-19T11:26:25;125.70;;;116.70;;
35376;SDS011;21480;51.642;4.834;2022-08-19T11:28:52;124.40;;;115.37;;
35376;SDS011;21480;51.642;4.834;2022-08-19T11:31:20;125.73;;;116.40;;
35376;SDS011;21480;51.642;4.834;2022-08-19T11:33:48;128.80;;;118.40;;
35376;SDS011;21480;51.642;4.834;2022-08-19T11:36:17;127.10;;;117.63;;
35376;SDS011;21480;51.642;4.834;2022-08-19T11:38:45;130.33;;;120.43;;
35376;SDS011;21480;51.642;4.834;2022-08-19T11:41:13;129.20;;;118.93;;
35376;SDS011;21480;51.642;4.834;2022-08-19T11:43:40;130.60;;;120.20;;
35376;SDS011;21480;51.642;4.834;2022-08-19T11:46:06;130.63;;;120.43;;
35376;SDS011;21480;51.642;4.834;2022-08-19T11:48:35;134.67;;;123.97;;
35376;SDS011;21480;51.642;4.834;2022-08-19T11:51:09;135.67;;;124.23;;
35376;SDS011;21480;51.642;4.834;2022-08-19T11:53:37;136.40;;;124.33;;
35376;SDS011;21480;51.642;4.834;2022-08-19T11:56:06;138.90;;;126.87;;
35376;SDS011;21480;51.642;4.834;2022-08-19T11:58:33;140.53;;;127.53;;
35376;SDS011;21480;51.642;4.834;2022-08-19T12:00:59;141.90;;;129.30;;
35376;SDS011;21480;51.642;4.834;2022-08-19T12:03:26;140.43;;;127.77;;
35376;SDS011;21480;51.642;4.834;2022-08-19T12:05:53;137.00;;;125.10;;
35376;SDS011;21480;51.642;4.834;2022-08-19T12:08:19;138.07;;;125.70;;
35376;SDS011;21480;51.642;4.834;2022-08-19T12:10:45;130.03;;;119.53;;
35376;SDS011;21480;51.642;4.834;2022-08-19T12:13:11;129.60;;;119.00;;
35376;SDS011;21480;51.642;4.834;2022-08-19T12:15:44;132.47;;;122.00;;
35376;SDS011;21480;51.642;4.834;2022-08-19T12:18:11;129.63;;;119.60;;
35376;SDS011;21480;51.642;4.834;2022-08-19T12:20:39;131.67;;;121.03;;
35376;SDS011;21480;51.642;4.834;2022-08-19T12:23:06;130.80;;;120.70;;
35376;SDS011;21480;51.642;4.834;2022-08-19T12:25:34;129.97;;;119.80;;
35376;SDS011;21480;51.642;4.834;2022-08-19T12:28:00;129.73;;;119.60;;
35376;SDS011;21480;51.642;4.834;2022-08-19T12:30:27;129.17;;;119.30;;
35376;SDS011;21480;51.642;4.834;2022-08-19T12:32:53;126.73;;;117.33;;
35376;SDS011;21480;51.642;4.834;2022-08-19T12:35:19;127.47;;;117.83;;
35376;SDS011;21480;51.642;4.834;2022-08-19T12:37:46;126.67;;;117.20;;
35376;SDS011;21480;51.642;4.834;2022-08-19T12:40:14;127.37;;;117.97;;
35376;SDS011;21480;51.642;4.834;2022-08-19T12:42:40;127.30;;;117.93;;
35376;SDS011;21480;51.642;4.834;2022-08-19T12:45:10;125.73;;;116.13;;
35376;SDS011;21480;51.642;4.834;2022-08-19T12:47:37;125.03;;;115.73;;
35376;SDS011;21480;51.642;4.834;2022-08-19T12:50:04;126.13;;;116.90;;
35376;SDS011;21480;51.642;4.834;2022-08-19T12:52:35;126.93;;;117.43;;
35376;SDS011;21480;51.642;4.834;2022-08-19T12:55:06;127.93;;;118.10;;
35376;SDS011;21480;51.642;4.834;2022-08-19T12:57:32;128.13;;;118.13;;
35376;SDS011;21480;51.642;4.834;2022-08-19T13:00:08;125.87;;;116.23;;
35376;SDS011;21480;51.642;4.834;2022-08-19T13:02:41;128.57;;;118.67;;
35376;SDS011;21480;51.642;4.834;2022-08-19T13:05:10;129.03;;;119.03;;
35376;SDS011;21480;51.642;4.834;2022-08-19T13:07:41;129.93;;;119.77;;
35376;SDS011;21480;51.642;4.834;2022-08-19T13:10:11;125.27;;;115.97;;
35376;SDS011;21480;51.642;4.834;2022-08-19T13:12:40;124.87;;;115.97;;
35376;SDS011;21480;51.642;4.834;2022-08-19T13:15:06;124.90;;;115.53;;
35376;SDS011;21480;51.642;4.834;2022-08-19T13:17:33;124.43;;;115.33;;
35376;SDS011;21480;51.642;4.834;2022-08-19T13:19:59;125.77;;;116.33;;
35376;SDS011;21480;51.642;4.834;2022-08-19T13:22:25;124.50;;;115.37;;
35376;SDS011;21480;51.642;4.834;2022-08-19T13:24:51;125.43;;;116.00;;
35376;SDS011;21480;51.642;4.834;2022-08-19T13:27:16;126.50;;;116.93;;
35376;SDS011;21480;51.642;4.834;2022-08-19T13:29:42;127.70;;;117.70;;
35376;SDS011;21480;51.642;4.834;2022-08-19T13:32:26;124.70;;;115.27;;
35376;SDS011;21480;51.642;4.834;2022-08-19T13:35:11;127.17;;;117.77;;
35376;SDS011;21480;51.642;4.834;2022-08-19T13:37:37;126.23;;;116.77;;
35376;SDS011;21480;51.642;4.834;2022-08-19T13:40:07;126.37;;;116.77;;
35376;SDS011;21480;51.642;4.834;2022-08-19T13:42:41;127.80;;;118.17;;
35376;SDS011;21480;51.642;4.834;2022-08-19T13:45:07;126.40;;;117.00;;
35376;SDS011;21480;51.642;4.834;2022-08-19T13:47:34;125.13;;;116.03;;
35376;SDS011;21480;51.642;4.834;2022-08-19T13:50:00;125.07;;;115.77;;
35376;SDS011;21480;51.642;4.834;2022-08-19T13:52:28;127.27;;;117.63;;
35376;SDS011;21480;51.642;4.834;2022-08-19T13:54:54;124.90;;;116.07;;
35376;SDS011;21480;51.642;4.834;2022-08-19T13:57:19;122.00;;;113.33;;
35376;SDS011;21480;51.642;4.834;2022-08-19T13:59:45;122.97;;;114.27;;
35376;SDS011;21480;51.642;4.834;2022-08-19T14:02:11;122.87;;;113.93;;
35376;SDS011;21480;51.642;4.834;2022-08-19T14:04:37;120.43;;;111.87;;
35376;SDS011;21480;51.642;4.834;2022-08-19T14:07:03;123.47;;;114.40;;
35376;SDS011;21480;51.642;4.834;2022-08-19T14:09:29;122.87;;;113.93;;
35376;SDS011;21480;51.642;4.834;2022-08-19T14:11:55;126.00;;;116.63;;
35376;SDS011;21480;51.642;4.834;2022-08-19T14:14:21;125.30;;;116.13;;
35376;SDS011;21480;51.642;4.834;2022-08-19T14:16:47;127.43;;;117.63;;
35376;SDS011;21480;51.642;4.834;2022-08-19T14:19:13;129.47;;;119.50;;